createdAt,value
2024-03-15T00:01:34.056Z,1.83
2024-03-15T00:04:02.114Z,2.10
2024-03-15T00:06:30.747Z,1.30
2024-03-15T00:08:58.949Z,1.50
2024-03-15T00:11:27.010Z,1.63
2024-03-15T00:13:55.074Z,1.48
2024-03-15T00:16:23.108Z,1.92
2024-03-15T00:18:51.199Z,1.33
2024-03-15T00:21:19.286Z,1.52
2024-03-15T00:23:47.344Z,1.65
2024-03-15T00:26:15.366Z,1.92
2024-03-15T00:28:43.386Z,1.67
2024-03-15T00:31:11.423Z,1.60
2024-03-15T00:33:40.189Z,1.52
2024-03-15T00:36:08.416Z,2.00
2024-03-15T00:38:36.495Z,1.75
2024-03-15T00:41:04.628Z,1.70
2024-03-15T00:43:32.672Z,1.40
2024-03-15T00:46:00.761Z,1.65
2024-03-15T00:48:28.909Z,1.73
2024-03-15T00:50:57.035Z,1.55
2024-03-15T00:53:25.111Z,1.40
2024-03-15T00:55:53.285Z,1.50
2024-03-15T00:58:21.625Z,1.40
2024-03-15T01:00:50.194Z,1.23
2024-03-15T01:03:20.071Z,1.35
2024-03-15T01:05:48.209Z,1.20
2024-03-15T01:08:16.223Z,1.77
2024-03-15T01:10:44.330Z,1.40
2024-03-15T01:13:12.410Z,1.50
2024-03-15T01:15:40.598Z,1.20
2024-03-15T01:18:09.081Z,1.65
2024-03-15T01:20:37.256Z,1.48
2024-03-15T01:23:05.405Z,2.50
2024-03-15T01:25:35.738Z,1.55
2024-03-15T01:28:04.049Z,1.98
2024-03-15T01:30:32.202Z,1.35
2024-03-15T01:33:00.321Z,1.70
2024-03-15T01:35:33.511Z,1.70
2024-03-15T01:38:02.813Z,1.40
2024-03-15T01:40:30.850Z,1.20
2024-03-15T01:42:58.901Z,1.73
2024-03-15T01:45:26.956Z,1.73
2024-03-15T01:47:55.067Z,1.50
2024-03-15T01:50:24.015Z,1.50
2024-03-15T01:52:52.716Z,1.60
2024-03-15T01:55:20.788Z,1.60
2024-03-15T01:57:48.960Z,1.60
2024-03-15T02:00:18.034Z,1.17
2024-03-15T02:02:46.173Z,1.50
2024-03-15T02:05:14.331Z,1.65
2024-03-15T02:07:42.356Z,1.58
2024-03-15T02:10:13.826Z,1.58
2024-03-15T02:12:41.970Z,1.42
2024-03-15T02:15:10.261Z,1.70
2024-03-15T02:17:38.827Z,1.70
2024-03-15T02:20:07.854Z,1.67
2024-03-15T02:22:36.040Z,1.50
2024-03-15T02:25:04.103Z,1.88
2024-03-15T02:27:32.463Z,1.60
2024-03-15T02:30:00.678Z,1.63
2024-03-15T02:32:28.765Z,1.52
2024-03-15T02:34:56.814Z,1.70
2024-03-15T02:37:24.838Z,1.58
2024-03-15T02:39:53.026Z,1.67
2024-03-15T02:42:21.538Z,2.50
2024-03-15T02:44:49.831Z,1.00
2024-03-15T02:47:17.907Z,1.73
2024-03-15T02:49:45.952Z,2.08
2024-03-15T02:52:14.003Z,1.98
2024-03-15T02:54:42.087Z,2.03
2024-03-15T02:57:10.228Z,2.30
2024-03-15T02:59:38.288Z,1.65
2024-03-15T03:02:09.897Z,1.48
2024-03-15T03:04:38.151Z,1.42
2024-03-15T03:07:06.247Z,1.38
2024-03-15T03:09:34.359Z,2.22
2024-03-15T03:12:02.469Z,1.70
2024-03-15T03:14:30.524Z,1.80
2024-03-15T03:16:58.569Z,2.10
2024-03-15T03:19:27.907Z,1.40
2024-03-15T03:21:57.330Z,1.92
2024-03-15T03:24:25.438Z,1.52
2024-03-15T03:26:53.508Z,2.00
2024-03-15T03:29:21.565Z,1.95
2024-03-15T03:31:49.656Z,1.90
2024-03-15T03:34:17.719Z,1.70
2024-03-15T03:36:45.867Z,1.73
2024-03-15T03:39:15.246Z,1.45
2024-03-15T03:41:43.594Z,1.70
2024-03-15T03:44:11.993Z,1.90
2024-03-15T03:46:43.006Z,1.98
2024-03-15T03:49:11.161Z,2.35
2024-03-15T03:51:40.160Z,1.90
2024-03-15T03:54:08.421Z,2.13
2024-03-15T03:56:39.856Z,2.42
2024-03-15T03:59:07.940Z,1.73
2024-03-15T04:01:36.208Z,1.67
2024-03-15T04:04:04.343Z,2.35
2024-03-15T04:06:32.473Z,1.80
2024-03-15T04:09:00.536Z,1.60
2024-03-15T04:11:28.652Z,1.90
2024-03-15T04:13:56.734Z,1.95
2024-03-15T04:16:24.787Z,2.60
2024-03-15T04:18:54.363Z,2.20
2024-03-15T04:21:23.300Z,2.10
2024-03-15T04:23:51.338Z,2.25
2024-03-15T04:26:19.781Z,1.85
2024-03-15T04:28:47.808Z,1.98
2024-03-15T04:31:17.670Z,1.80
2024-03-15T04:33:45.780Z,2.20
2024-03-15T04:36:13.892Z,1.80
2024-03-15T04:38:41.917Z,2.63
2024-03-15T04:41:12.124Z,2.35
2024-03-15T04:43:41.419Z,1.80
2024-03-15T04:46:11.009Z,2.70
2024-03-15T04:48:39.379Z,1.75
2024-03-15T04:51:08.074Z,2.30
2024-03-15T04:53:36.183Z,2.13
2024-03-15T04:56:05.029Z,2.75
2024-03-15T04:58:35.102Z,2.33
2024-03-15T05:01:03.447Z,1.90
2024-03-15T05:03:31.728Z,1.77
2024-03-15T05:05:59.847Z,2.20
2024-03-15T05:08:29.165Z,1.70
2024-03-15T05:10:57.560Z,1.85
2024-03-15T05:13:26.241Z,2.35
2024-03-15T05:15:54.329Z,2.03
2024-03-15T05:18:22.544Z,2.17
2024-03-15T05:20:50.636Z,2.10
2024-03-15T05:23:19.240Z,2.22
2024-03-15T05:25:50.069Z,2.25
2024-03-15T05:28:18.533Z,2.33
2024-03-15T05:30:47.323Z,2.30
2024-03-15T05:33:15.562Z,2.08
2024-03-15T05:35:44.538Z,1.83
2024-03-15T05:38:12.538Z,2.05
2024-03-15T05:40:40.591Z,2.00
2024-03-15T05:43:08.638Z,2.60
2024-03-15T05:45:36.724Z,2.65
2024-03-15T05:48:05.874Z,2.63
2024-03-15T05:50:33.962Z,2.58
2024-03-15T05:53:02.382Z,2.72
2024-03-15T05:55:30.515Z,2.28
2024-03-15T05:57:58.585Z,2.33
2024-03-15T06:00:27.921Z,2.85
2024-03-15T06:02:56.049Z,2.58
2024-03-15T06:05:24.130Z,2.42
2024-03-15T06:07:53.662Z,2.42
2024-03-15T06:10:22.326Z,3.28
2024-03-15T06:12:52.143Z,2.42
2024-03-15T06:15:20.833Z,2.90
2024-03-15T06:17:48.969Z,2.42
2024-03-15T06:20:17.080Z,2.45
2024-03-15T06:22:45.525Z,1.67
2024-03-15T06:25:13.913Z,2.22
2024-03-15T06:27:42.479Z,2.83
2024-03-15T06:30:13.658Z,2.47
2024-03-15T06:32:41.800Z,2.55
2024-03-15T06:35:23.423Z,2.47
2024-03-15T06:37:55.802Z,2.33
2024-03-15T06:40:44.345Z,2.22
2024-03-15T06:43:15.721Z,3.13
2024-03-15T06:45:54.671Z,2.67
2024-03-15T06:48:34.885Z,2.42
2024-03-15T06:51:23.147Z,2.55
2024-03-15T06:53:50.200Z,2.45
2024-03-15T06:56:18.280Z,2.88
2024-03-15T06:58:47.060Z,2.60
2024-03-15T07:01:15.203Z,2.42
2024-03-15T07:03:44.819Z,2.35
2024-03-15T07:06:13.035Z,2.97
2024-03-15T07:08:41.224Z,2.50
2024-03-15T07:11:09.691Z,2.80
2024-03-15T07:13:38.161Z,3.10
2024-03-15T07:16:09.419Z,3.08
2024-03-15T07:18:38.697Z,2.65
2024-03-15T07:21:07.422Z,3.30
2024-03-15T07:23:35.503Z,3.00
2024-03-15T07:26:04.553Z,2.60
2024-03-15T07:28:32.894Z,2.67
2024-03-15T07:31:01.717Z,3.28
2024-03-15T07:33:30.147Z,2.80
2024-03-15T07:36:02.867Z,2.72
2024-03-15T07:38:31.716Z,3.38
2024-03-15T07:41:00.433Z,3.05
2024-03-15T07:43:29.208Z,2.28
2024-03-15T07:45:57.670Z,2.35
2024-03-15T07:48:26.378Z,2.78
2024-03-15T07:50:55.019Z,2.88
2024-03-15T07:53:24.034Z,3.05
2024-03-15T07:56:07.129Z,2.53
2024-03-15T07:58:37.188Z,2.80
2024-03-15T08:01:10.070Z,2.53
2024-03-15T08:03:39.366Z,2.60
2024-03-15T08:06:07.903Z,2.97
2024-03-15T08:08:36.165Z,3.50
2024-03-15T08:11:07.899Z,2.90
2024-03-15T08:13:39.431Z,2.65
2024-03-15T08:16:20.732Z,3.47
2024-03-15T08:18:50.428Z,2.63
2024-03-15T08:21:18.854Z,3.00
2024-03-15T08:23:47.113Z,2.97
2024-03-15T08:26:15.757Z,2.55
2024-03-15T08:28:43.851Z,2.83
2024-03-15T08:33:40.250Z,3.03
2024-03-15T08:36:08.785Z,2.83
2024-03-15T08:38:38.110Z,2.72
2024-03-15T08:41:07.301Z,3.00
2024-03-15T08:43:36.189Z,2.83
2024-03-15T08:46:05.874Z,2.85
2024-03-15T08:48:34.226Z,2.03
2024-03-15T08:51:04.875Z,3.00
2024-03-15T08:53:33.356Z,2.83
2024-03-15T08:56:12.153Z,2.88
2024-03-15T08:58:40.167Z,3.20
2024-03-15T09:01:08.449Z,3.10
2024-03-15T09:03:39.775Z,3.67
2024-03-15T09:06:09.838Z,2.75
2024-03-15T09:08:38.116Z,3.17
2024-03-15T09:11:08.099Z,3.55
2024-03-15T09:13:55.095Z,2.58
2024-03-15T09:16:33.324Z,3.03
2024-03-15T09:19:05.812Z,3.55
2024-03-15T09:21:35.962Z,2.80
2024-03-15T09:24:04.493Z,2.70
2024-03-15T09:26:32.554Z,3.30
2024-03-15T09:29:04.062Z,3.05
2024-03-15T09:31:51.626Z,3.40
2024-03-15T09:34:23.661Z,3.13
2024-03-15T09:36:52.709Z,3.28
2024-03-15T09:39:21.333Z,2.53
2024-03-15T09:41:51.264Z,3.45
2024-03-15T09:44:20.097Z,2.83
2024-03-15T09:46:48.209Z,2.83
2024-03-15T09:49:17.909Z,3.72
2024-03-15T09:51:46.375Z,3.05
2024-03-15T09:54:14.620Z,3.90
2024-03-15T09:56:42.705Z,2.47
2024-03-15T09:59:10.983Z,2.50
2024-03-15T10:01:39.230Z,2.58
2024-03-15T10:04:07.723Z,3.28
2024-03-15T10:06:36.160Z,2.25
2024-03-15T10:09:04.842Z,2.05
2024-03-15T10:11:32.979Z,2.35
2024-03-15T10:14:01.922Z,2.13
2024-03-15T10:16:35.980Z,2.58
2024-03-15T10:19:05.314Z,1.70
2024-03-15T10:21:33.570Z,2.58
2024-03-15T10:24:09.722Z,2.03
2024-03-15T10:26:39.384Z,2.15
2024-03-15T10:29:09.024Z,2.80
2024-03-15T10:31:38.103Z,2.35
2024-03-15T10:34:06.815Z,2.03
2024-03-15T10:36:34.999Z,1.67
2024-03-15T10:39:04.823Z,2.47
2024-03-15T10:41:33.529Z,2.10
2024-03-15T10:44:01.984Z,2.10
2024-03-15T10:46:30.061Z,2.30
2024-03-15T10:48:58.417Z,2.67
2024-03-15T10:51:26.710Z,2.17
2024-03-15T10:53:54.917Z,2.38
2024-03-15T10:56:23.334Z,2.00
2024-03-15T10:58:51.407Z,2.65
2024-03-15T11:01:20.005Z,2.20
2024-03-15T11:03:48.245Z,2.60
2024-03-15T11:06:16.348Z,2.53
2024-03-15T11:08:44.473Z,2.22
2024-03-15T11:11:13.613Z,2.35
2024-03-15T11:13:41.684Z,2.33
2024-03-15T11:16:19.626Z,2.42
2024-03-15T11:18:48.005Z,2.47
2024-03-15T11:21:21.283Z,2.00
2024-03-15T11:23:49.785Z,2.83
2024-03-15T11:26:21.420Z,2.58
2024-03-15T11:28:49.650Z,2.05
2024-03-15T11:31:20.729Z,2.80
2024-03-15T11:33:52.778Z,1.60
2024-03-15T11:36:20.978Z,2.30
2024-03-15T11:38:51.293Z,2.05
2024-03-15T11:41:22.268Z,2.58
2024-03-15T11:43:51.145Z,2.08
2024-03-15T11:46:19.394Z,2.10
2024-03-15T11:48:47.665Z,2.17
2024-03-15T11:51:16.187Z,2.75
2024-03-15T11:53:44.318Z,2.20
2024-03-15T11:56:12.418Z,1.63
2024-03-15T11:58:42.440Z,1.67
2024-03-15T12:01:11.840Z,1.20
2024-03-15T12:03:40.417Z,2.22
2024-03-15T12:06:09.851Z,1.60
2024-03-15T12:08:38.032Z,1.70
2024-03-15T12:11:07.121Z,1.23
2024-03-15T12:13:35.254Z,1.90
2024-03-15T12:16:07.367Z,1.73
2024-03-15T12:18:35.722Z,1.95
2024-03-15T12:21:03.811Z,1.60
2024-03-15T12:23:35.504Z,1.10
2024-03-15T12:26:05.050Z,1.45
2024-03-15T12:28:33.138Z,1.95
2024-03-15T12:31:01.253Z,1.90
2024-03-15T12:33:29.551Z,1.50
2024-03-15T12:36:00.418Z,1.70
2024-03-15T12:38:28.722Z,1.20
2024-03-15T12:40:58.611Z,1.63
2024-03-15T12:43:27.673Z,1.75
2024-03-15T12:45:59.813Z,1.73
2024-03-15T12:48:27.991Z,1.58
2024-03-15T12:51:01.473Z,1.85
2024-03-15T12:53:29.549Z,1.65
2024-03-15T12:56:00.161Z,1.52
2024-03-15T12:58:30.050Z,1.20
2024-03-15T13:00:58.302Z,1.40
2024-03-15T13:03:27.666Z,1.35
2024-03-15T13:05:58.275Z,1.40
2024-03-15T13:08:26.434Z,1.45
2024-03-15T13:10:55.723Z,1.40
2024-03-15T13:13:23.967Z,1.63
2024-03-15T13:15:53.369Z,1.58
2024-03-15T13:18:22.410Z,2.22
2024-03-15T13:20:52.968Z,2.38
2024-03-15T13:23:23.932Z,1.83
2024-03-15T13:25:55.745Z,1.67
2024-03-15T13:28:23.855Z,1.30
2024-03-15T13:30:51.941Z,1.48
2024-03-15T13:33:21.873Z,2.20
2024-03-15T13:35:51.968Z,1.30
2024-03-15T13:38:20.051Z,2.00
2024-03-15T13:40:51.800Z,1.95
2024-03-15T13:43:21.303Z,1.58
2024-03-15T13:45:58.343Z,2.03
2024-03-15T13:48:27.780Z,2.17
2024-03-15T13:50:56.220Z,2.17
2024-03-15T13:53:26.009Z,1.80
2024-03-15T13:55:55.643Z,2.17
2024-03-15T13:58:23.719Z,2.03
2024-03-15T14:00:54.899Z,1.48
2024-03-15T14:03:23.911Z,2.05
2024-03-15T14:05:54.703Z,1.45
2024-03-15T14:08:26.835Z,1.55
2024-03-15T14:10:55.124Z,1.58
2024-03-15T14:13:24.967Z,1.60
2024-03-15T14:15:54.479Z,1.50
2024-03-15T14:18:23.481Z,1.30
2024-03-15T14:20:52.324Z,1.90
2024-03-15T14:23:30.295Z,1.70
2024-03-15T14:26:00.702Z,1.75
2024-03-15T14:28:31.453Z,1.13
2024-03-15T14:31:02.517Z,1.88
2024-03-15T14:33:33.064Z,1.80
2024-03-15T14:36:03.382Z,1.85
2024-03-15T14:38:33.084Z,1.77
2024-03-15T14:41:01.219Z,1.90
2024-03-15T14:43:29.298Z,1.73
2024-03-15T14:45:57.643Z,2.05
2024-03-15T14:48:25.836Z,1.88
2024-03-15T14:50:53.954Z,1.95
2024-03-15T14:53:22.878Z,2.08
2024-03-15T14:55:53.241Z,1.85
2024-03-15T14:58:21.445Z,1.98
2024-03-15T15:00:51.248Z,2.00
2024-03-15T15:03:24.709Z,2.20
2024-03-15T15:05:53.140Z,1.90
2024-03-15T15:08:25.117Z,1.38
2024-03-15T15:10:53.919Z,1.83
2024-03-15T15:13:22.122Z,1.88
2024-03-15T15:15:52.303Z,2.35
2024-03-15T15:18:20.732Z,1.83
2024-03-15T15:20:51.822Z,2.60
2024-03-15T15:23:19.992Z,1.50
2024-03-15T15:25:48.230Z,2.03
2024-03-15T15:28:16.860Z,1.70
2024-03-15T15:30:44.967Z,1.45
2024-03-15T15:33:13.158Z,1.48
2024-03-15T15:35:41.203Z,1.58
2024-03-15T15:38:09.776Z,2.28
2024-03-15T15:40:39.040Z,1.48
2024-03-15T15:43:07.754Z,1.75
2024-03-15T15:45:36.191Z,1.75
2024-03-15T15:48:06.770Z,1.55
2024-03-15T15:50:36.593Z,1.52
2024-03-15T15:53:06.498Z,1.40
2024-03-15T15:55:36.373Z,2.08
2024-03-15T15:58:05.883Z,1.55
2024-03-15T16:00:34.390Z,1.98
2024-03-15T16:03:04.552Z,1.55
2024-03-15T16:05:33.346Z,1.60
2024-03-15T16:08:03.651Z,2.00
2024-03-15T16:10:31.730Z,1.95
2024-03-15T16:13:01.217Z,1.20
2024-03-15T16:15:29.382Z,1.45
2024-03-15T16:17:57.523Z,1.73
2024-03-15T16:20:28.864Z,1.75
2024-03-15T16:22:57.630Z,1.42
2024-03-15T16:25:25.730Z,1.98
2024-03-15T16:27:53.920Z,2.83
2024-03-15T16:30:22.959Z,2.33
2024-03-15T16:33:00.505Z,1.98
2024-03-15T16:35:31.218Z,2.47
2024-03-15T16:37:59.280Z,2.38
2024-03-15T16:40:27.901Z,2.20
2024-03-15T16:42:58.791Z,2.35
2024-03-15T16:45:27.001Z,3.20
2024-03-15T16:47:55.737Z,3.42
2024-03-15T16:50:26.313Z,4.90
2024-03-15T16:52:54.637Z,5.22
2024-03-15T16:55:24.702Z,13.38
2024-03-15T16:57:57.647Z,13.65
2024-03-15T17:00:32.714Z,2.17
2024-03-15T17:03:02.115Z,2.00
2024-03-15T17:05:31.525Z,2.15
2024-03-15T17:07:59.644Z,2.60
2024-03-15T17:10:27.720Z,2.80
2024-03-15T17:12:56.370Z,2.00
2024-03-15T17:15:27.674Z,3.05
2024-03-15T17:17:55.964Z,2.67
2024-03-15T17:20:24.030Z,2.10
2024-03-15T17:22:52.109Z,2.53
2024-03-15T17:25:20.241Z,1.63
2024-03-15T17:27:48.472Z,1.58
2024-03-15T17:30:16.851Z,2.65
2024-03-15T17:32:45.154Z,2.55
2024-03-15T17:35:13.506Z,3.30
2024-03-15T17:37:42.153Z,2.35
2024-03-15T17:40:11.657Z,2.15
2024-03-15T17:42:40.218Z,2.10
2024-03-15T17:45:11.621Z,2.55
2024-03-15T17:47:40.134Z,2.75
2024-03-15T17:50:09.374Z,3.05
2024-03-15T17:52:37.917Z,2.67
2024-03-15T17:55:06.360Z,2.13
2024-03-15T17:57:34.501Z,2.50
2024-03-15T18:00:08.865Z,2.42
2024-03-15T18:02:39.042Z,2.72
2024-03-15T18:05:07.241Z,2.55
2024-03-15T18:07:35.359Z,2.60
2024-03-15T18:10:04.033Z,2.70
2024-03-15T18:12:32.200Z,2.58
2024-03-15T18:15:00.292Z,2.95
2024-03-15T18:17:28.552Z,2.88
2024-03-15T18:19:56.617Z,2.47
2024-03-15T18:22:24.687Z,2.42
2024-03-15T18:24:53.563Z,3.42
2024-03-15T18:27:22.446Z,2.38
2024-03-15T18:29:50.536Z,2.20
2024-03-15T18:32:18.597Z,2.10
2024-03-15T18:34:48.493Z,2.03
2024-03-15T18:37:17.846Z,1.83
2024-03-15T18:39:46.353Z,2.00
2024-03-15T18:42:14.444Z,1.92
2024-03-15T18:44:46.168Z,1.80
2024-03-15T18:47:14.905Z,2.08
2024-03-15T18:49:43.058Z,1.98
2024-03-15T18:52:12.306Z,2.03
2024-03-15T18:54:40.744Z,2.47
2024-03-15T18:57:09.676Z,2.38
2024-03-15T18:59:42.199Z,2.10
2024-03-15T19:02:13.176Z,1.70
2024-03-15T19:04:41.936Z,2.22
2024-03-15T19:07:10.054Z,2.55
2024-03-15T19:09:40.262Z,2.28
2024-03-15T19:12:08.644Z,1.77
2024-03-15T19:14:37.500Z,1.50
2024-03-15T19:17:05.763Z,1.98
2024-03-15T19:19:35.107Z,2.40
2024-03-15T19:22:03.612Z,2.42
2024-03-15T19:24:31.758Z,2.05
2024-03-15T19:26:59.984Z,1.83
2024-03-15T19:29:28.940Z,1.77
2024-03-15T19:31:57.481Z,1.23
2024-03-15T19:34:25.572Z,1.73
2024-03-15T19:36:53.720Z,1.75
2024-03-15T19:39:22.524Z,1.80
2024-03-15T19:41:50.658Z,2.03
2024-03-15T19:44:20.461Z,2.22
2024-03-15T19:46:48.537Z,2.25
2024-03-15T19:49:16.698Z,1.27
2024-03-15T19:51:44.822Z,0.82
2024-03-15T19:54:14.397Z,1.08
2024-03-15T19:56:42.646Z,1.75
2024-03-15T19:59:13.771Z,1.08
2024-03-15T20:01:43.237Z,1.38
2024-03-15T20:04:11.411Z,1.88
2024-03-15T20:06:41.414Z,0.68
2024-03-15T20:09:12.150Z,0.77
2024-03-15T20:11:40.564Z,1.00
2024-03-15T20:14:08.861Z,1.48
2024-03-15T20:16:37.109Z,0.90
2024-03-15T20:19:05.422Z,1.23
2024-03-15T20:21:33.557Z,1.33
2024-03-15T20:24:02.979Z,1.00
2024-03-15T20:26:31.702Z,1.02
2024-03-15T20:28:59.973Z,0.68
2024-03-15T20:31:28.075Z,0.90
2024-03-15T20:33:56.240Z,1.20
2024-03-15T20:36:24.535Z,0.80
2024-03-15T20:38:52.936Z,1.10
2024-03-15T20:41:21.930Z,1.25
2024-03-15T20:43:49.969Z,0.57
2024-03-15T20:46:18.083Z,0.63
2024-03-15T20:48:46.363Z,0.50
2024-03-15T20:51:15.592Z,0.70
2024-03-15T20:53:47.492Z,1.13
2024-03-15T20:56:15.556Z,0.55
2024-03-15T20:58:43.605Z,1.00
2024-03-15T21:01:12.371Z,0.90
2024-03-15T21:03:40.700Z,0.75
2024-03-15T21:06:08.968Z,0.98
2024-03-15T21:08:37.190Z,0.57
2024-03-15T21:11:05.488Z,0.47
2024-03-15T21:13:33.985Z,0.65
2024-03-15T21:16:02.144Z,0.63
2024-03-15T21:18:30.319Z,0.80
2024-03-15T21:20:58.465Z,1.05
2024-03-15T21:23:26.675Z,0.60
2024-03-15T21:25:57.229Z,0.60
2024-03-15T21:28:25.772Z,0.50
2024-03-15T21:30:57.459Z,0.73
2024-03-15T21:33:26.095Z,0.45
2024-03-15T21:35:56.707Z,0.35
2024-03-15T21:38:25.593Z,0.30
2024-03-15T21:40:59.288Z,0.32
2024-03-15T21:43:30.999Z,0.20
2024-03-15T21:46:02.072Z,0.22
2024-03-15T21:48:32.064Z,0.30
2024-03-15T21:51:00.178Z,0.73
2024-03-15T21:53:28.239Z,0.40
2024-03-15T21:55:56.318Z,0.22
2024-03-15T21:58:24.787Z,0.30
2024-03-15T22:00:58.384Z,0.40
2024-03-15T22:03:27.194Z,0.32
2024-03-15T22:05:55.910Z,0.52
2024-03-15T22:08:25.621Z,4.05
2024-03-15T22:10:54.947Z,3.67
2024-03-15T22:13:24.058Z,0.57
2024-03-15T22:15:55.188Z,0.30
2024-03-15T22:18:23.480Z,0.28
2024-03-15T22:20:51.663Z,0.30
2024-03-15T22:23:19.723Z,0.50
2024-03-15T22:25:49.895Z,0.22
2024-03-15T22:28:18.417Z,0.30
2024-03-15T22:30:51.492Z,0.30
2024-03-15T22:33:19.988Z,0.17
2024-03-15T22:35:49.289Z,0.20
2024-03-15T22:38:17.550Z,0.63
2024-03-15T22:40:46.445Z,0.95
2024-03-15T22:43:14.520Z,0.60
2024-03-15T22:45:44.841Z,0.30
2024-03-15T22:48:12.992Z,0.43
2024-03-15T22:50:41.042Z,0.30
2024-03-15T22:53:09.220Z,0.40
2024-03-15T22:55:37.270Z,0.40
2024-03-15T22:58:08.135Z,0.40
2024-03-15T23:00:43.788Z,0.32
2024-03-15T23:03:11.968Z,0.43
2024-03-15T23:05:40.025Z,0.38
2024-03-15T23:08:08.193Z,0.15
2024-03-15T23:10:36.838Z,0.50
2024-03-15T23:13:08.169Z,0.57
2024-03-15T23:15:36.338Z,0.30
2024-03-15T23:18:04.870Z,0.30
2024-03-15T23:20:34.066Z,0.47
2024-03-15T23:23:02.397Z,0.32
2024-03-15T23:25:30.628Z,0.20
2024-03-15T23:27:59.815Z,0.57
2024-03-15T23:30:28.684Z,0.30
2024-03-15T23:32:56.904Z,0.60
2024-03-15T23:35:25.069Z,0.40
2024-03-15T23:37:53.080Z,0.50
2024-03-15T23:40:21.147Z,0.68
2024-03-15T23:42:50.230Z,0.82
2024-03-15T23:45:18.399Z,0.60
2024-03-15T23:47:46.936Z,0.73
2024-03-15T23:50:15.185Z,0.75
2024-03-15T23:52:43.273Z,0.75
2024-03-15T23:55:12.296Z,0.63
2024-03-15T23:57:43.861Z,0.80
